Time,TemperatureF,DewpointF,PressureIn,WindDirection,WindDirectionDegrees,WindSpeedMPH,WindSpeedGustMPH,Humidity,HourlyPrecipIn,Conditions,Clouds,dailyrainin,SoftwareType,DateUTC
2013-01-08 00:01:00,47.1,10.2,30.02,WNW,289,13.2,17.4,22,0.00,,SCT250,0.00,VWS V14.01,2013-01-08 08:01:00,
2013-01-08 00:06:00,47.3,10.4,30.02,NW,313,13.2,15.0,22,0.00,,SCT250,0.00,VWS V14.01,2013-01-08 08:06:00,
2013-01-08 00:11:00,47.5,10.6,30.02,NW,322,16.3,19.7,22,0.00,,SCT250,0.00,VWS V14.01,2013-01-08 08:11:00,
2013-01-08 00:16:00,47.7,10.7,30.02,NW,307,15.9,21.9,22,0.00,,SCT250,0.00,VWS V14.01,2013-01-08 08:16:00,
2013-01-08 00:21:00,47.7,10.7,30.02,NW,319,18.3,22.4,22,0.00,,SCT250,0.00,VWS V14.01,2013-01-08 08:21:00,
2013-01-08 00:26:00,47.7,10.7,30.02,West,275,24.6,24.6,22,0.00,,SCT250,0.00,VWS V14.01,2013-01-08 08:26:00,
2013-01-08 00:31:00,47.5,10.6,30.02,NW,313,17.4,22.4,22,0.00,,SCT250,0.00,VWS V14.01,2013-01-08 08:31:00,
2013-01-08 00:36:00,47.3,10.4,30.02,NW,320,10.1,16.8,22,0.00,,SCT250,0.00,VWS V14.01,2013-01-08 08:36:00,
2013-01-08 00:41:00,47.1,10.2,30.02,NNW,333,7.6,7.6,22,0.00,,SCT250,0.00,VWS V14.01,2013-01-08 08:41:00,
2013-01-08 00:46:00,47.1,10.2,30.02,North,8,3.1,3.6,22,0.00,,SCT250,0.00,VWS V14.01,2013-01-08 08:46:00,
2013-01-08 00:51:00,47.1,10.2,30.02,NW,317,4.9,8.3,22,0.00,,SCT250,0.00,VWS V14.01,2013-01-08 08:51:00,
2013-01-08 00:56:00,47.1,10.2,30.02,West,280,3.6,5.8,22,0.00,,SCT250,0.00,VWS V14.01,2013-01-08 08:56:00,
2013-01-08 01:01:00,47.3,10.4,30.02,NW,311,8.1,8.1,22,0.00,,SCT250,0.00,VWS V14.01,2013-01-08 09:01:00,
2013-01-08 01:06:00,46.9,10.1,30.02,NW,321,3.6,7.2,22,0.00,,SCT250,0.00,VWS V14.01,2013-01-08 09:06:00,
2013-01-08 01:11:00,46.8,9.9,30.02,NW,307,8.7,8.7,22,0.00,,SCT250,0.00,VWS V14.01,2013-01-08 09:11:00,
2013-01-08 01:16:00,46.9,10.1,30.02,NNW,346,4.0,7.6,22,0.00,,SCT250,0.00,VWS V14.01,2013-01-08 09:16:00,
2013-01-08 01:21:00,46.8,9.9,30.05,NW,316,6.3,8.7,22,0.00,,SCT250,0.00,VWS V14.01,2013-01-08 09:21:00,
2013-01-08 01:26:00,46.8,9.9,30.05,NNW,338,7.6,8.3,22,0.00,,SCT250,0.00,VWS V14.01,2013-01-08 09:26:00,
2013-01-08 01:31:00,46.8,9.9,30.05,NNW,328,10.5,10.5,22,0.00,,SCT250,0.00,VWS V14.01,2013-01-08 09:31:00,
2013-01-08 01:36:00,47.3,10.4,30.05,WNW,289,17.4,17.4,22,0.00,,SCT250,0.00,VWS V14.01,2013-01-08 09:36:00,
2013-01-08 01:41:00,47.5,10.6,30.05,NW,314,14.5,21.0,22,0.00,,SCT250,0.00,VWS V14.01,2013-01-08 09:41:00,
2013-01-08 01:46:00,47.7,10.7,30.05,WNW,298,16.8,16.8,22,0.00,,SCT250,0.00,VWS V14.01,2013-01-08 09:46:00,
2013-01-08 01:51:00,47.7,10.7,30.02,NW,307,12.8,17.0,22,0.00,,SCT250,0.00,VWS V14.01,2013-01-08 09:51:00,
2013-01-08 01:56:00,47.7,10.7,30.02,NW,312,18.8,18.8,22,0.00,,SCT250,0.00,VWS V14.01,2013-01-08 09:56:00,
2013-01-08 02:01:00,47.3,10.4,30.02,NW,312,23.3,25.7,22,0.00,,SCT250,0.00,VWS V14.01,2013-01-08 10:01:00,
2013-01-08 02:06:00,47.3,10.4,30.02,NW,308,17.9,18.3,22,0.00,,SCT250,0.00,VWS V14.01,2013-01-08 10:06:00,
2013-01-08 02:11:00,47.3,10.4,30.02,NW,319,10.1,12.3,22,0.00,,SCT250,0.00,VWS V14.01,2013-01-08 10:11:00,
2013-01-08 02:16:00,47.1,10.2,30.02,North,357,8.1,8.1,22,0.00,,SCT250,0.00,VWS V14.01,2013-01-08 10:16:00,
2013-01-08 02:21:00,46.2,9.5,30.05,NNW,348,6.3,6.3,22,0.00,,SCT250,0.00,VWS V14.01,2013-01-08 10:21:00,
2013-01-08 02:26:00,46.2,9.5,30.05,NW,318,3.1,3.1,22,0.00,,SCT250,0.00,VWS V14.01,2013-01-08 10:26:00,
2013-01-08 02:31:00,47.3,10.4,30.05,NW,321,15.4,17.4,22,0.00,,SCT250,0.00,VWS V14.01,2013-01-08 10:31:00,
2013-01-08 02:36:00,48.4,10.3,30.05,NW,310,13.6,13.6,21,0.00,,SCT250,0.00,VWS V14.01,2013-01-08 10:36:00,
2013-01-08 02:41:00,48.4,10.3,30.05,WNW,302,10.5,10.5,21,0.00,,SCT250,0.00,VWS V14.01,2013-01-08 10:41:00,
2013-01-08 02:46:00,47.7,10.7,30.05,NW,309,12.8,12.8,22,0.00,,SCT250,0.00,VWS V14.01,2013-01-08 10:46:00,
2013-01-08 02:51:00,46.8,9.9,30.05,NW,307,17.9,17.9,22,0.00,,SCT250,0.00,VWS V14.01,2013-01-08 10:51:00,
2013-01-08 02:56:00,46.9,10.1,30.05,NW,318,19.2,19.2,22,0.00,,SCT250,0.00,VWS V14.01,2013-01-08 10:56:00,
2013-01-08 03:01:00,48.0,11.0,30.05,North,353,10.5,10.5,22,0.00,,SCT250,0.00,VWS V14.01,2013-01-08 11:01:00,
2013-01-08 03:06:00,48.2,10.1,30.05,North,353,11.0,11.0,21,0.00,,SCT250,0.00,VWS V14.01,2013-01-08 11:06:00,
2013-01-08 03:11:00,47.5,10.6,30.05,North,350,8.1,8.1,22,0.00,,SCT250,0.00,VWS V14.01,2013-01-08 11:11:00,
2013-01-08 03:16:00,47.5,10.6,30.05,NNW,337,5.8,7.6,22,0.00,,SCT250,0.00,VWS V14.01,2013-01-08 11:16:00,
2013-01-08 03:21:00,47.7,10.7,30.05,NNW,340,6.3,8.3,22,0.00,,SCT250,0.00,VWS V14.01,2013-01-08 11:21:00,
2013-01-08 03:26:00,47.5,10.6,30.05,WNW,299,8.3,8.3,22,0.00,,SCT250,0.00,VWS V14.01,2013-01-08 11:26:00,
2013-01-08 03:31:00,47.3,10.4,30.05,NNW,340,8.3,8.3,22,0.00,,SCT250,0.00,VWS V14.01,2013-01-08 11:31:00,
2013-01-08 03:36:00,46.8,9.9,30.05,North,3,6.7,6.7,22,0.00,,SCT250,0.00,VWS V14.01,2013-01-08 11:36:00,
2013-01-08 03:41:00,46.2,9.5,30.05,North,357,8.1,8.3,22,0.00,,SCT250,0.00,VWS V14.01,2013-01-08 11:41:00,
2013-01-08 03:46:00,45.9,9.2,30.05,North,0,5.8,5.8,22,0.00,,SCT250,0.00,VWS V14.01,2013-01-08 11:46:00,
2013-01-08 03:51:00,45.7,9.0,30.05,NW,313,9.2,9.2,22,0.00,,SCT250,0.00,VWS V14.01,2013-01-08 11:51:00,
2013-01-08 03:56:00,45.3,8.7,30.05,NW,326,8.7,8.7,22,0.00,,SCT250,0.00,VWS V14.01,2013-01-08 11:56:00,
2013-01-08 04:01:00,46.0,9.3,30.05,NW,310,8.3,13.2,22,0.00,,SCT250,0.00,VWS V14.01,2013-01-08 12:01:00,
2013-01-08 04:06:00,47.5,10.6,30.05,NW,317,20.1,20.1,22,0.00,,SCT250,0.00,VWS V14.01,2013-01-08 12:06:00,
2013-01-08 04:11:00,48.4,10.3,30.05,WNW,293,15.9,15.9,21,0.00,,SCT250,0.00,VWS V14.01,2013-01-08 12:11:00,
2013-01-08 04:16:00,48.6,10.4,30.05,NW,308,8.1,15.0,21,0.00,,SCT250,0.00,VWS V14.01,2013-01-08 12:16:00,
2013-01-08 04:21:00,48.4,10.3,30.05,WNW,290,8.7,13.6,21,0.00,,SCT250,0.00,VWS V14.01,2013-01-08 12:21:00,
2013-01-08 04:26:00,48.4,10.3,30.05,NW,306,15.4,17.9,21,0.00,,SCT250,0.00,VWS V14.01,2013-01-08 12:26:00,
2013-01-08 04:31:00,48.4,10.3,30.05,WNW,298,13.2,17.4,21,0.00,,SCT250,0.00,VWS V14.01,2013-01-08 12:31:00,
2013-01-08 04:36:00,48.2,10.1,30.05,NW,310,10.5,14.5,21,0.00,,SCT250,0.00,VWS V14.01,2013-01-08 12:36:00,
2013-01-08 04:41:00,47.3,10.4,30.05,NW,317,10.1,10.1,22,0.00,,SCT250,0.00,VWS V14.01,2013-01-08 12:41:00,
2013-01-08 04:46:00,46.4,9.6,30.05,NNW,339,7.2,8.3,22,0.00,,SCT250,0.00,VWS V14.01,2013-01-08 12:46:00,
2013-01-08 04:50:00,46.6,9.8,30.05,NW,305,8.7,12.3,22,0.00,,SCT250,0.00,VWS V14.01,2013-01-08 12:50:00,
2013-01-08 04:55:00,46.6,9.8,30.05,NW,317,13.2,17.0,22,0.00,,SCT250,0.00,VWS V14.01,2013-01-08 12:55:00,
2013-01-08 05:00:00,46.9,10.1,30.05,NW,305,15.9,19.7,22,0.00,,SCT250,0.00,VWS V14.01,2013-01-08 13:00:00,
2013-01-08 05:05:00,46.9,10.1,30.05,WNW,298,12.8,15.4,22,0.00,,SCT250,0.00,VWS V14.01,2013-01-08 13:05:00,
2013-01-08 05:10:00,46.9,10.1,30.05,North,353,8.1,8.1,22,0.00,,SCT250,0.00,VWS V14.01,2013-01-08 13:10:00,
2013-01-08 05:15:00,46.9,10.1,30.05,North,353,8.1,8.1,22,0.00,,SCT250,0.00,VWS V14.01,2013-01-08 13:15:00,
2013-01-08 05:20:00,46.9,10.1,30.05,North,353,8.1,8.1,22,0.00,,SCT250,0.00,VWS V14.01,2013-01-08 13:20:00,
2013-01-08 05:25:00,46.9,10.1,30.05,North,353,8.1,8.1,22,0.00,,SCT250,0.00,VWS V14.01,2013-01-08 13:25:00,
2013-01-08 05:30:00,46.9,10.1,30.05,NNW,331,4.9,4.9,22,0.00,,SCT250,0.00,VWS V14.01,2013-01-08 13:30:00,
2013-01-08 05:35:00,46.9,10.1,30.05,NNW,337,8.3,8.3,22,0.00,,SCT250,0.00,VWS V14.01,2013-01-08 13:35:00,
2013-01-08 05:40:00,46.9,10.1,30.08,North,0,7.6,7.6,22,0.00,,SCT250,0.00,VWS V14.01,2013-01-08 13:40:00,
2013-01-08 05:45:00,46.9,10.1,30.08,North,0,7.6,7.6,22,0.00,,SCT250,0.00,VWS V14.01,2013-01-08 13:45:00,
2013-01-08 05:50:00,46.9,10.1,30.08,North,0,7.6,7.6,22,0.00,,SCT250,0.00,VWS V14.01,2013-01-08 13:50:00,
2013-01-08 05:55:00,46.4,9.6,30.08,North,0,7.6,7.6,22,0.00,,SCT250,0.00,VWS V14.01,2013-01-08 13:55:00,
2013-01-08 06:00:00,46.4,9.6,30.08,WNW,294,12.3,12.3,22,0.00,,SCT250,0.00,VWS V14.01,2013-01-08 14:00:00,
2013-01-08 06:05:00,46.4,9.6,30.08,NW,319,16.8,16.8,22,0.00,,SCT250,0.00,VWS V14.01,2013-01-08 14:05:00,
2013-01-08 06:10:00,46.8,9.9,30.08,NW,319,16.8,16.8,22,0.00,,SCT250,0.00,VWS V14.01,2013-01-08 14:10:00,
2013-01-08 06:15:00,46.8,9.9,30.08,NW,306,12.3,12.3,22,0.00,,SCT250,0.00,VWS V14.01,2013-01-08 14:15:00,
2013-01-08 06:20:00,46.8,9.9,30.08,NW,306,12.3,12.3,22,0.00,,SCT250,0.00,VWS V14.01,2013-01-08 14:20:00,
2013-01-08 06:25:00,46.8,9.9,30.08,NW,306,12.3,12.3,22,0.00,,SCT250,0.00,VWS V14.01,2013-01-08 14:25:00,
2013-01-08 06:30:00,45.7,9.0,30.08,NW,317,13.2,13.2,22,0.00,,SCT250,0.00,VWS V14.01,2013-01-08 14:30:00,
2013-01-08 06:35:00,45.7,9.0,30.08,WNW,303,10.1,10.1,22,0.00,,SCT250,0.00,VWS V14.01,2013-01-08 14:35:00,
2013-01-08 06:40:00,45.7,9.0,30.08,WNW,303,10.1,10.1,22,0.00,,SCT250,0.00,VWS V14.01,2013-01-08 14:40:00,
2013-01-08 06:45:00,45.7,9.0,30.08,WNW,303,10.1,10.1,22,0.00,,SCT250,0.00,VWS V14.01,2013-01-08 14:45:00,
2013-01-08 06:50:00,44.8,8.3,30.08,NW,309,5.8,10.1,22,0.00,,SCT250,0.00,VWS V14.01,2013-01-08 14:50:00,
2013-01-08 06:55:00,44.8,8.3,30.08,NW,310,7.6,7.6,22,0.00,,SCT250,0.00,VWS V14.01,2013-01-08 14:55:00,
2013-01-08 07:00:00,44.8,8.3,30.08,NW,310,7.6,7.6,22,0.00,,SCT250,0.00,VWS V14.01,2013-01-08 15:00:00,
2013-01-08 07:05:00,44.8,8.3,30.08,NW,310,7.6,7.6,22,0.00,,SCT250,0.00,VWS V14.01,2013-01-08 15:05:00,
2013-01-08 07:10:00,44.8,8.3,30.08,NW,310,7.6,7.6,22,0.00,,SCT250,0.00,VWS V14.01,2013-01-08 15:10:00,
2013-01-08 07:15:00,45.9,9.2,30.08,NW,310,7.6,7.6,22,0.00,,SCT250,0.00,VWS V14.01,2013-01-08 15:15:00,
2013-01-08 07:20:00,45.9,9.2,30.08,NW,310,7.6,7.6,22,0.00,,SCT250,0.00,VWS V14.01,2013-01-08 15:20:00,
2013-01-08 07:25:00,45.9,9.2,30.08,NW,310,7.6,7.6,22,0.00,,SCT250,0.00,VWS V14.01,2013-01-08 15:25:00,
2013-01-08 07:30:00,45.9,9.2,30.08,NW,324,3.6,3.6,22,0.00,,SCT250,0.00,VWS V14.01,2013-01-08 15:30:00,
2013-01-08 07:35:00,45.9,9.2,30.08,NW,324,3.6,3.6,22,0.00,,SCT250,0.00,VWS V14.01,2013-01-08 15:35:00,
2013-01-08 07:40:00,45.9,9.2,30.08,NW,324,3.6,3.6,22,0.00,,SCT250,0.00,VWS V14.01,2013-01-08 15:40:00,
2013-01-08 07:45:00,45.9,9.2,30.08,NW,324,3.6,3.6,22,0.00,,SCT250,0.00,VWS V14.01,2013-01-08 15:45:00,
2013-01-08 07:53:00,46.4,9.6,30.11,West,280,0.0,0.0,22,0.00,,,0.00,VWS V14.01,2013-01-08 15:53:00,
2013-01-08 07:58:00,47.3,10.4,30.11,WSW,252,3.1,3.6,22,0.00,,,0.00,VWS V14.01,2013-01-08 15:58:00,
2013-01-08 08:03:00,48.0,11.0,30.11,WNW,286,2.7,3.1,22,0.00,,SCT250,0.00,VWS V14.01,2013-01-08 16:03:00,
2013-01-08 08:08:00,48.7,10.6,30.14,West,275,4.0,4.0,21,0.00,,SCT250,0.00,VWS V14.01,2013-01-08 16:08:00,
2013-01-08 08:13:00,49.3,11.0,30.14,WNW,297,4.0,6.3,21,0.00,,SCT250,0.00,VWS V14.01,2013-01-08 16:13:00,
2013-01-08 08:18:00,50.0,11.6,30.14,NW,308,0.0,3.1,21,0.00,,SCT250,0.00,VWS V14.01,2013-01-08 16:18:00,
2013-01-08 08:23:00,50.9,12.4,30.14,NW,308,0.0,0.0,21,0.00,,SCT250,0.00,VWS V14.01,2013-01-08 16:23:00,
2013-01-08 08:28:00,52.2,13.4,30.14,NW,311,4.5,4.5,21,0.00,,SCT250,0.00,VWS V14.01,2013-01-08 16:28:00,
2013-01-08 08:33:00,53.1,14.2,30.14,NW,325,0.0,0.0,21,0.00,,SCT250,0.00,VWS V14.01,2013-01-08 16:33:00,
2013-01-08 08:38:00,53.6,13.5,30.14,NNE,13,0.0,0.0,20,0.00,,SCT250,0.00,VWS V14.01,2013-01-08 16:38:00,
2013-01-08 08:43:00,53.4,14.5,30.14,NNE,21,0.0,0.0,21,0.00,,SCT250,0.00,VWS V14.01,2013-01-08 16:43:00,
2013-01-08 08:48:00,53.6,13.5,30.14,North,357,6.3,6.3,20,0.00,,SCT250,0.00,VWS V14.01,2013-01-08 16:48:00,
2013-01-08 08:53:00,53.2,14.3,30.14,NNE,14,5.8,7.6,21,0.00,,SCT250,0.00,VWS V14.01,2013-01-08 16:53:00,
2013-01-08 08:58:00,53.6,13.5,30.14,NNE,13,6.3,6.3,20,0.00,,SCT250,0.00,VWS V14.01,2013-01-08 16:58:00,
2013-01-08 09:03:00,54.1,14.0,30.14,NNW,346,0.0,4.0,20,0.00,,SCT250,0.00,VWS V14.01,2013-01-08 17:03:00,
2013-01-08 09:08:00,54.1,14.0,30.14,WNW,300,0.0,0.0,20,0.00,,SCT250,0.00,VWS V14.01,2013-01-08 17:08:00,
2013-01-08 09:13:00,55.0,14.7,30.14,WNW,301,0.0,0.0,20,0.00,,SCT250,0.00,VWS V14.01,2013-01-08 17:13:00,
2013-01-08 09:18:00,56.1,15.6,30.14,WNW,300,0.0,0.0,20,0.00,,SCT250,0.00,VWS V14.01,2013-01-08 17:18:00,
2013-01-08 09:23:00,57.0,16.4,30.14,WNW,300,0.0,0.0,20,0.00,,SCT250,0.00,VWS V14.01,2013-01-08 17:23:00,
2013-01-08 09:28:00,57.4,15.5,30.14,WNW,300,0.0,0.0,19,0.00,,SCT250,0.00,VWS V14.01,2013-01-08 17:28:00,
2013-01-08 09:33:00,57.2,15.3,30.14,WSW,257,3.1,3.6,19,0.00,,SCT250,0.00,VWS V14.01,2013-01-08 17:33:00,
2013-01-08 09:38:00,57.0,16.4,30.14,WNW,282,8.3,8.3,20,0.00,,SCT250,0.00,VWS V14.01,2013-01-08 17:38:00,
2013-01-08 09:43:00,57.2,15.3,30.14,West,276,10.1,11.0,19,0.00,,SCT250,0.00,VWS V14.01,2013-01-08 17:43:00,
2013-01-08 09:48:00,57.6,15.6,30.14,North,0,5.8,8.7,19,0.00,,SCT250,0.00,VWS V14.01,2013-01-08 17:48:00,
2013-01-08 09:53:00,58.8,16.7,30.14,NNE,15,4.0,4.9,19,0.00,,SCT250,0.00,VWS V14.01,2013-01-08 17:53:00,
2013-01-08 09:58:00,59.2,17.0,30.14,NE,37,3.6,3.6,19,0.00,,SCT250,0.00,VWS V14.01,2013-01-08 17:58:00,
2013-01-08 10:03:00,59.7,17.4,30.14,NE,35,7.2,7.2,19,0.00,,FEW250,0.00,VWS V14.01,2013-01-08 18:03:00,
2013-01-08 10:08:00,58.8,16.7,30.14,NE,53,5.4,5.4,19,0.00,,FEW250,0.00,VWS V14.01,2013-01-08 18:08:00,
2013-01-08 10:13:00,58.3,16.2,30.14,NE,52,11.0,11.0,19,0.00,,FEW250,0.00,VWS V14.01,2013-01-08 18:13:00,
2013-01-08 10:18:00,58.1,16.1,30.14,NE,36,8.1,8.1,19,0.00,,FEW250,0.00,VWS V14.01,2013-01-08 18:18:00,
2013-01-08 10:23:00,58.8,16.7,30.14,ENE,57,8.1,8.1,19,0.00,,FEW250,0.00,VWS V14.01,2013-01-08 18:23:00,
2013-01-08 10:28:00,57.9,15.9,30.14,East,94,2.7,2.7,19,0.00,,FEW250,0.00,VWS V14.01,2013-01-08 18:28:00,
2013-01-08 10:33:00,57.4,15.5,30.14,East,83,8.3,8.3,19,0.00,,FEW250,0.00,VWS V14.01,2013-01-08 18:33:00,
2013-01-08 10:38:00,57.4,15.5,30.14,ENE,76,8.3,8.3,19,0.00,,FEW250,0.00,VWS V14.01,2013-01-08 18:38:00,
2013-01-08 10:43:00,57.2,15.3,30.14,East,91,7.6,7.6,19,0.00,,FEW250,0.00,VWS V14.01,2013-01-08 18:43:00,
2013-01-08 10:48:00,57.6,15.6,30.14,NE,44,5.4,5.4,19,0.00,,FEW250,0.00,VWS V14.01,2013-01-08 18:48:00,
2013-01-08 10:53:00,57.9,15.9,30.14,ENE,61,5.8,6.7,19,0.00,,FEW250,0.00,VWS V14.01,2013-01-08 18:53:00,
2013-01-08 10:58:00,58.5,16.4,30.14,NNW,327,5.4,6.7,19,0.00,,FEW250,0.00,VWS V14.01,2013-01-08 18:58:00,
2013-01-08 11:03:00,59.5,17.3,30.14,ENE,71,3.1,3.1,19,0.00,,FEW250,0.00,VWS V14.01,2013-01-08 19:03:00,
2013-01-08 11:08:00,60.4,18.0,30.14,ENE,70,0.0,0.0,19,0.00,,FEW250,0.00,VWS V14.01,2013-01-08 19:08:00,
2013-01-08 11:13:00,61.7,21.4,30.14,ESE,104,4.0,4.0,21,0.00,,FEW250,0.00,VWS V14.01,2013-01-08 19:13:00,
2013-01-08 11:18:00,62.8,22.3,30.14,NE,53,4.9,4.9,21,0.00,,FEW250,0.00,VWS V14.01,2013-01-08 19:18:00,
2013-01-08 11:23:00,63.0,22.5,30.11,NNE,30,4.0,4.0,21,0.00,,FEW250,0.00,VWS V14.01,2013-01-08 19:23:00,
2013-01-08 11:28:00,63.5,22.9,30.11,East,93,5.8,5.8,21,0.00,,FEW250,0.00,VWS V14.01,2013-01-08 19:28:00,
2013-01-08 11:33:00,62.4,22.0,30.11,NE,56,6.3,6.3,21,0.00,,FEW250,0.00,VWS V14.01,2013-01-08 19:33:00,
2013-01-08 11:38:00,61.5,18.9,30.11,East,85,4.0,5.4,19,0.00,,FEW250,0.00,VWS V14.01,2013-01-08 19:38:00,
2013-01-08 11:43:00,61.0,18.5,30.11,NE,36,6.3,6.3,19,0.00,,FEW250,0.00,VWS V14.01,2013-01-08 19:43:00,
2013-01-08 11:48:00,61.2,18.6,30.11,ENE,75,5.4,5.4,19,0.00,,FEW250,0.00,VWS V14.01,2013-01-08 19:48:00,
2013-01-08 11:53:00,61.2,18.6,30.11,ENE,62,4.0,5.8,19,0.00,,FEW250,0.00,VWS V14.01,2013-01-08 19:53:00,
2013-01-08 11:58:00,61.5,18.9,30.11,ENE,74,4.0,5.4,19,0.00,,FEW250,0.00,VWS V14.01,2013-01-08 19:58:00,
2013-01-08 12:03:00,62.4,22.0,30.11,ENE,57,4.0,7.2,21,0.00,,SCT250,0.00,VWS V14.01,2013-01-08 20:03:00,
2013-01-08 12:08:00,63.0,22.5,30.11,ENE,78,0.0,0.0,21,0.00,,SCT250,0.00,VWS V14.01,2013-01-08 20:08:00,
2013-01-08 12:13:00,64.0,23.3,30.11,ESE,104,2.7,4.9,21,0.00,,SCT250,0.00,VWS V14.01,2013-01-08 20:13:00,
2013-01-08 12:18:00,64.4,22.5,30.11,ENE,59,6.3,6.3,20,0.00,,SCT250,0.00,VWS V14.01,2013-01-08 20:18:00,
2013-01-08 12:23:00,65.3,23.2,30.11,NW,319,5.4,5.4,20,0.00,,SCT250,0.00,VWS V14.01,2013-01-08 20:23:00,
2013-01-08 12:28:00,66.4,24.1,30.11,WNW,303,8.7,11.0,20,0.00,,SCT250,0.00,VWS V14.01,2013-01-08 20:28:00,
2013-01-08 12:33:00,67.3,24.9,30.11,NNW,342,4.0,6.3,20,0.00,,SCT250,0.00,VWS V14.01,2013-01-08 20:33:00,
2013-01-08 12:38:00,67.8,25.3,30.08,ENE,77,8.3,8.3,20,0.00,,SCT250,0.00,VWS V14.01,2013-01-08 20:38:00,
2013-01-08 12:43:00,66.2,24.0,30.08,East,79,6.3,6.3,20,0.00,,SCT250,0.00,VWS V14.01,2013-01-08 20:43:00,
2013-01-08 12:47:00,64.8,22.8,30.08,South,179,7.2,7.2,20,0.00,,SCT250,0.00,VWS V14.01,2013-01-08 20:47:00,
2013-01-08 12:52:00,64.6,22.6,30.08,East,89,3.1,3.1,20,0.00,,SCT250,0.00,VWS V14.01,2013-01-08 20:52:00,
2013-01-08 12:57:00,65.1,23.1,30.08,NE,56,0.0,0.0,20,0.00,,SCT250,0.00,VWS V14.01,2013-01-08 20:57:00,
2013-01-08 13:02:00,66.0,23.8,30.08,NNE,33,5.4,5.4,20,0.00,,SCT250,0.00,VWS V14.01,2013-01-08 21:02:00,
2013-01-08 13:07:00,66.7,24.4,30.08,ENE,65,3.1,3.6,20,0.00,,SCT250,0.00,VWS V14.01,2013-01-08 21:07:00,
2013-01-08 13:12:00,66.0,23.8,30.08,ESE,116,6.3,6.3,20,0.00,,SCT250,0.00,VWS V14.01,2013-01-08 21:12:00,
2013-01-08 13:17:00,64.9,22.9,30.08,SE,136,4.0,5.4,20,0.00,,SCT250,0.00,VWS V14.01,2013-01-08 21:17:00,
2013-01-08 13:22:00,64.9,22.9,30.08,NE,38,2.7,5.8,20,0.00,,SCT250,0.00,VWS V14.01,2013-01-08 21:22:00,
2013-01-08 13:27:00,65.7,23.5,30.08,NNE,32,0.0,0.0,20,0.00,,SCT250,0.00,VWS V14.01,2013-01-08 21:27:00,
2013-01-08 13:32:00,66.9,24.6,30.08,NNE,31,0.0,0.0,20,0.00,,SCT250,0.00,VWS V14.01,2013-01-08 21:32:00,
2013-01-08 13:37:00,68.0,25.5,30.08,NE,37,5.8,7.6,20,0.00,,SCT250,0.00,VWS V14.01,2013-01-08 21:37:00,
2013-01-08 13:42:00,67.8,25.3,30.08,NW,321,0.0,0.0,20,0.00,,SCT250,0.00,VWS V14.01,2013-01-08 21:42:00,
2013-01-08 13:47:00,68.7,26.1,30.08,NW,323,0.0,0.0,20,0.00,,SCT250,0.00,VWS V14.01,2013-01-08 21:47:00,
2013-01-08 13:52:00,68.0,25.5,30.08,NW,323,0.0,0.0,20,0.00,,SCT250,0.00,VWS V14.01,2013-01-08 21:52:00,
2013-01-08 13:57:00,68.0,25.5,30.08,WSW,258,0.0,3.6,20,0.00,,SCT250,0.00,VWS V14.01,2013-01-08 21:57:00,
2013-01-08 14:02:00,68.7,26.1,30.08,North,6,4.0,4.9,20,0.00,,SCT250,0.00,VWS V14.01,2013-01-08 22:02:00,
2013-01-08 14:07:00,69.1,26.4,30.08,NW,324,0.0,0.0,20,0.00,,SCT250,0.00,VWS V14.01,2013-01-08 22:07:00,
2013-01-08 14:12:00,69.3,26.5,30.08,NW,316,10.5,13.2,20,0.00,,SCT250,0.00,VWS V14.01,2013-01-08 22:12:00,
2013-01-08 14:17:00,69.3,26.5,30.08,WNW,287,12.8,15.0,20,0.00,,SCT250,0.00,VWS V14.01,2013-01-08 22:17:00,
2013-01-08 14:22:00,68.4,25.8,30.08,WNW,286,8.7,10.5,20,0.00,,SCT250,0.00,VWS V14.01,2013-01-08 22:22:00,
2013-01-08 14:27:00,67.6,25.2,30.08,WNW,298,11.0,12.8,20,0.00,,SCT250,0.00,VWS V14.01,2013-01-08 22:27:00,
2013-01-08 14:32:00,66.9,24.6,30.08,NW,313,11.4,13.2,20,0.00,,SCT250,0.00,VWS V14.01,2013-01-08 22:32:00,
2013-01-08 14:37:00,66.7,24.4,30.08,NNW,327,11.0,11.0,20,0.00,,SCT250,0.00,VWS V14.01,2013-01-08 22:37:00,
2013-01-08 14:42:00,66.9,24.6,30.08,WNW,286,10.1,10.1,20,0.00,,SCT250,0.00,VWS V14.01,2013-01-08 22:42:00,
2013-01-08 14:47:00,66.6,24.3,30.08,NW,316,12.8,12.8,20,0.00,,SCT250,0.00,VWS V14.01,2013-01-08 22:47:00,
2013-01-08 14:52:00,66.6,24.3,30.08,WNW,302,13.2,13.6,20,0.00,,SCT250,0.00,VWS V14.01,2013-01-08 22:52:00,
2013-01-08 14:57:00,66.6,24.3,30.08,NW,318,13.2,15.0,20,0.00,,SCT250,0.00,VWS V14.01,2013-01-08 22:57:00,
2013-01-08 15:02:00,66.6,24.3,30.08,NW,306,12.8,12.8,20,0.00,,SCT250,0.00,VWS V14.01,2013-01-08 23:02:00,
2013-01-08 15:07:00,66.6,24.3,30.08,NW,321,8.3,8.3,20,0.00,,SCT250,0.00,VWS V14.01,2013-01-08 23:07:00,
2013-01-08 15:12:00,66.6,24.3,30.08,NW,317,11.0,13.2,20,0.00,,SCT250,0.00,VWS V14.01,2013-01-08 23:12:00,
2013-01-08 15:17:00,66.7,24.4,30.08,WNW,300,8.7,11.0,20,0.00,,SCT250,0.00,VWS V14.01,2013-01-08 23:17:00,
2013-01-08 15:22:00,66.7,24.4,30.08,NW,307,10.5,15.0,20,0.00,,SCT250,0.00,VWS V14.01,2013-01-08 23:22:00,
2013-01-08 15:27:00,66.4,24.1,30.08,NW,307,8.3,13.2,20,0.00,,SCT250,0.00,VWS V14.01,2013-01-08 23:27:00,
2013-01-08 15:32:00,66.2,24.0,30.08,NW,310,12.8,12.8,20,0.00,,SCT250,0.00,VWS V14.01,2013-01-08 23:32:00,
2013-01-08 15:37:00,66.0,23.8,30.08,NNW,329,12.3,12.8,20,0.00,,SCT250,0.00,VWS V14.01,2013-01-08 23:37:00,
2013-01-08 15:42:00,65.7,23.5,30.08,NW,318,11.0,15.0,20,0.00,,SCT250,0.00,VWS V14.01,2013-01-08 23:42:00,
2013-01-08 15:47:00,65.7,23.5,30.08,WNW,302,13.6,14.5,20,0.00,,SCT250,0.00,VWS V14.01,2013-01-08 23:47:00,
2013-01-08 15:52:00,65.3,23.2,30.11,WNW,299,11.9,11.9,20,0.00,,SCT250,0.00,VWS V14.01,2013-01-08 23:52:00,
2013-01-08 15:57:00,64.9,22.9,30.11,WNW,303,12.8,12.8,20,0.00,,SCT250,0.00,VWS V14.01,2013-01-08 23:57:00,
2013-01-08 16:02:00,64.8,22.8,30.11,NW,311,15.0,17.0,20,0.00,,SCT250,0.00,VWS V14.01,2013-01-09 00:02:00,
2013-01-08 16:07:00,64.8,22.8,30.11,NW,322,7.6,8.1,20,0.00,,SCT250,0.00,VWS V14.01,2013-01-09 00:07:00,
2013-01-08 16:12:00,64.6,22.6,30.11,WNW,298,5.8,8.3,20,0.00,,SCT250,0.00,VWS V14.01,2013-01-09 00:12:00,
2013-01-08 16:17:00,64.4,22.5,30.11,WNW,298,8.1,8.3,20,0.00,,SCT250,0.00,VWS V14.01,2013-01-09 00:17:00,
2013-01-08 16:22:00,64.0,23.3,30.11,WNW,299,7.6,11.0,21,0.00,,SCT250,0.00,VWS V14.01,2013-01-09 00:22:00,
2013-01-08 16:27:00,63.9,23.2,30.11,WNW,300,5.8,8.1,21,0.00,,SCT250,0.00,VWS V14.01,2013-01-09 00:27:00,
2013-01-08 16:32:00,63.0,18.8,30.11,NW,310,5.8,6.3,18,0.00,,SCT250,0.00,VWS V14.01,2013-01-09 00:32:00,
2013-01-08 16:37:00,62.1,19.3,30.08,NW,321,5.8,8.7,19,0.00,,SCT250,0.00,VWS V14.01,2013-01-09 00:37:00,
2013-01-08 16:42:00,61.7,19.0,30.08,WNW,288,8.1,11.0,19,0.00,,SCT250,0.00,VWS V14.01,2013-01-09 00:42:00,
2013-01-08 16:47:00,61.2,18.6,30.08,NNW,328,10.5,11.0,19,0.00,,SCT250,0.00,VWS V14.01,2013-01-09 00:47:00,
2013-01-08 16:52:00,61.0,18.5,30.11,WNW,296,8.3,8.7,19,0.00,,SCT250,0.00,VWS V14.01,2013-01-09 00:52:00,
2013-01-08 16:57:00,60.6,18.2,30.11,NW,312,8.7,8.7,19,0.00,,SCT250,0.00,VWS V14.01,2013-01-09 00:57:00,
2013-01-08 17:02:00,60.4,18.0,30.11,NW,316,11.0,13.2,19,0.00,,SCT250,0.00,VWS V14.01,2013-01-09 01:02:00,
2013-01-08 17:07:00,60.4,18.0,30.11,WNW,294,8.3,10.5,19,0.00,,SCT250,0.00,VWS V14.01,2013-01-09 01:07:00,
2013-01-08 17:12:00,59.9,17.6,30.11,WNW,295,11.0,14.1,19,0.00,,SCT250,0.00,VWS V14.01,2013-01-09 01:12:00,
2013-01-08 17:17:00,59.5,17.3,30.11,WNW,295,8.3,8.3,19,0.00,,SCT250,0.00,VWS V14.01,2013-01-09 01:17:00,
2013-01-08 17:22:00,59.4,17.1,30.11,NW,310,7.2,7.2,19,0.00,,SCT250,0.00,VWS V14.01,2013-01-09 01:22:00,
2013-01-08 17:27:00,59.0,16.8,30.11,NW,318,5.8,5.8,19,0.00,,SCT250,0.00,VWS V14.01,2013-01-09 01:27:00,
2013-01-08 17:32:00,58.8,16.7,30.11,NNW,327,3.1,5.8,19,0.00,,SCT250,0.00,VWS V14.01,2013-01-09 01:32:00,
2013-01-08 17:37:00,58.6,16.5,30.11,North,350,5.8,6.3,19,0.00,,SCT250,0.00,VWS V14.01,2013-01-09 01:37:00,
2013-01-08 17:42:00,58.5,16.4,30.11,NW,325,8.3,8.3,19,0.00,,SCT250,0.00,VWS V14.01,2013-01-09 01:42:00,
2013-01-08 17:47:00,58.5,16.4,30.11,NNW,330,5.8,7.6,19,0.00,,SCT250,0.00,VWS V14.01,2013-01-09 01:47:00,
2013-01-08 17:52:00,58.3,16.2,30.14,NW,314,5.8,5.8,19,0.00,,SCT250,0.00,VWS V14.01,2013-01-09 01:52:00,
2013-01-08 17:57:00,58.1,16.1,30.14,NW,313,4.0,6.3,19,0.00,,SCT250,0.00,VWS V14.01,2013-01-09 01:57:00,
2013-01-08 18:02:00,58.1,16.1,30.14,WNW,288,5.4,5.4,19,0.00,,FEW250,0.00,VWS V14.01,2013-01-09 02:02:00,
2013-01-08 18:07:00,58.1,16.1,30.14,West,275,8.3,8.3,19,0.00,,FEW250,0.00,VWS V14.01,2013-01-09 02:07:00,
2013-01-08 18:12:00,58.1,16.1,30.14,West,275,4.0,5.4,19,0.00,,FEW250,0.00,VWS V14.01,2013-01-09 02:12:00,
2013-01-08 18:17:00,57.9,15.9,30.14,WNW,287,5.8,9.6,19,0.00,,FEW250,0.00,VWS V14.01,2013-01-09 02:17:00,
2013-01-08 18:22:00,57.6,15.6,30.14,West,281,3.1,6.3,19,0.00,,FEW250,0.00,VWS V14.01,2013-01-09 02:22:00,
2013-01-08 18:27:00,57.2,15.3,30.14,WNW,290,4.9,6.3,19,0.00,,FEW250,0.00,VWS V14.01,2013-01-09 02:27:00,
2013-01-08 18:32:00,56.7,16.1,30.14,WNW,296,4.9,4.9,20,0.00,,FEW250,0.00,VWS V14.01,2013-01-09 02:32:00,
2013-01-08 18:37:00,56.3,15.8,30.14,WNW,282,5.8,5.8,20,0.00,,FEW250,0.00,VWS V14.01,2013-01-09 02:37:00,
2013-01-08 18:42:00,55.4,15.0,30.14,NW,306,3.6,3.6,20,0.00,,FEW250,0.00,VWS V14.01,2013-01-09 02:42:00,
2013-01-08 18:47:00,54.5,14.3,30.14,NW,319,6.3,6.3,20,0.00,,FEW250,0.00,VWS V14.01,2013-01-09 02:47:00,
2013-01-08 18:52:00,53.6,13.5,30.14,NW,319,2.7,5.4,20,0.00,,FEW250,0.00,VWS V14.01,2013-01-09 02:52:00,
2013-01-08 18:57:00,52.9,14.0,30.14,NW,320,3.6,3.6,21,0.00,,FEW250,0.00,VWS V14.01,2013-01-09 02:57:00,
2013-01-08 19:02:00,52.9,14.0,30.14,NW,316,6.7,6.7,21,0.00,,FEW250,0.00,VWS V14.01,2013-01-09 03:02:00,
2013-01-08 19:07:00,53.2,14.3,30.14,NW,312,5.4,5.4,21,0.00,,FEW250,0.00,VWS V14.01,2013-01-09 03:07:00,
2013-01-08 19:12:00,53.2,14.3,30.14,NW,312,5.4,5.4,21,0.00,,FEW250,0.00,VWS V14.01,2013-01-09 03:12:00,
2013-01-08 19:17:00,53.2,14.3,30.14,NW,312,5.4,5.4,21,0.00,,FEW250,0.00,VWS V14.01,2013-01-09 03:17:00,
2013-01-08 19:21:00,53.2,14.3,30.14,NW,312,5.4,5.4,21,0.00,,FEW250,0.00,VWS V14.01,2013-01-09 03:21:00,
2013-01-08 19:26:00,53.2,14.3,30.14,NW,312,5.4,5.4,21,0.00,,FEW250,0.00,VWS V14.01,2013-01-09 03:26:00,
2013-01-08 19:31:00,53.2,14.3,30.14,NW,312,5.4,5.4,21,0.00,,FEW250,0.00,VWS V14.01,2013-01-09 03:31:00,
2013-01-08 19:36:00,53.2,14.3,30.14,WNW,302,8.1,8.1,21,0.00,,FEW250,0.00,VWS V14.01,2013-01-09 03:36:00,
2013-01-08 19:41:00,55.2,14.9,30.14,WNW,302,8.1,8.1,20,0.00,,FEW250,0.00,VWS V14.01,2013-01-09 03:41:00,
2013-01-08 19:46:00,55.2,14.9,30.14,WNW,302,8.1,8.1,20,0.00,,FEW250,0.00,VWS V14.01,2013-01-09 03:46:00,
2013-01-08 19:51:00,55.2,14.9,30.14,WNW,302,8.1,8.1,20,0.00,,FEW250,0.00,VWS V14.01,2013-01-09 03:51:00,
2013-01-08 19:56:00,55.2,14.9,30.14,WNW,302,8.1,8.1,20,0.00,,FEW250,0.00,VWS V14.01,2013-01-09 03:56:00,
2013-01-08 20:01:00,55.2,14.9,30.14,WNW,302,8.1,8.1,20,0.00,,FEW250,0.00,VWS V14.01,2013-01-09 04:01:00,
2013-01-08 20:06:00,55.2,14.9,30.14,WNW,302,8.1,8.1,20,0.00,,FEW250,0.00,VWS V14.01,2013-01-09 04:06:00,
2013-01-08 20:11:00,55.2,14.9,30.14,WNW,302,8.1,8.1,20,0.00,,FEW250,0.00,VWS V14.01,2013-01-09 04:11:00,
2013-01-08 20:16:00,55.2,14.9,30.17,WNW,302,8.1,8.1,20,0.00,,FEW250,0.00,VWS V14.01,2013-01-09 04:16:00,
2013-01-08 20:21:00,55.2,14.9,30.17,North,4,2.7,8.1,20,0.00,,FEW250,0.00,VWS V14.01,2013-01-09 04:21:00,
2013-01-08 20:26:00,55.2,14.9,30.17,NNE,17,5.8,5.8,20,0.00,,FEW250,0.00,VWS V14.01,2013-01-09 04:26:00,
2013-01-08 20:31:00,55.2,14.9,30.17,NNE,24,5.8,5.8,20,0.00,,FEW250,0.00,VWS V14.01,2013-01-09 04:31:00,
2013-01-08 20:36:00,55.2,14.9,30.17,NNE,24,5.8,5.8,20,0.00,,FEW250,0.00,VWS V14.01,2013-01-09 04:36:00,
2013-01-08 20:41:00,55.2,14.9,30.17,North,357,8.1,8.1,20,0.00,,FEW250,0.00,VWS V14.01,2013-01-09 04:41:00,
2013-01-08 20:46:00,52.7,13.9,30.17,NNW,334,3.6,3.6,21,0.00,,FEW250,0.00,VWS V14.01,2013-01-09 04:46:00,
2013-01-08 20:51:00,52.7,13.9,30.17,NNW,334,3.6,3.6,21,0.00,,FEW250,0.00,VWS V14.01,2013-01-09 04:51:00,
2013-01-08 20:56:00,52.7,13.9,30.17,NNW,334,3.6,3.6,21,0.00,,FEW250,0.00,VWS V14.01,2013-01-09 04:56:00,
2013-01-08 21:00:00,53.6,13.5,30.17,North,353,0.0,0.0,20,0.00,,FEW250,0.00,VWS V14.01,2013-01-09 05:00:00,
2013-01-08 21:03:00,53.6,13.5,30.17,North,353,0.0,0.0,20,0.00,,FEW250,0.00,VWS V14.01,2013-01-09 05:03:00,
2013-01-08 21:08:00,53.6,13.5,30.17,North,353,0.0,0.0,20,0.00,,FEW250,0.00,VWS V14.01,2013-01-09 05:08:00,
2013-01-08 21:13:00,53.6,13.5,30.17,North,353,0.0,0.0,20,0.00,,FEW250,0.00,VWS V14.01,2013-01-09 05:13:00,
2013-01-08 21:18:00,53.6,13.5,30.17,North,353,0.0,0.0,20,0.00,,FEW250,0.00,VWS V14.01,2013-01-09 05:18:00,
2013-01-08 21:23:00,53.6,13.5,30.17,West,277,0.0,0.0,20,0.00,,FEW250,0.00,VWS V14.01,2013-01-09 05:23:00,
2013-01-08 21:28:00,53.6,13.5,30.17,West,277,0.0,0.0,20,0.00,,FEW250,0.00,VWS V14.01,2013-01-09 05:28:00,
2013-01-08 21:33:00,53.6,13.5,30.20,West,261,0.0,0.0,20,0.00,,FEW250,0.00,VWS V14.01,2013-01-09 05:33:00,
2013-01-08 21:38:00,53.6,13.5,30.20,West,261,0.0,0.0,20,0.00,,FEW250,0.00,VWS V14.01,2013-01-09 05:38:00,
2013-01-08 21:43:00,53.6,13.5,30.20,West,261,0.0,0.0,20,0.00,,FEW250,0.00,VWS V14.01,2013-01-09 05:43:00,
2013-01-08 21:48:00,50.5,12.1,30.20,West,261,0.0,0.0,21,0.00,,FEW250,0.00,VWS V14.01,2013-01-09 05:48:00,
2013-01-08 21:53:00,50.0,11.6,30.20,NW,316,0.0,0.0,21,0.00,,FEW250,0.00,VWS V14.01,2013-01-09 05:53:00,
2013-01-08 21:58:00,48.9,10.7,30.20,NW,306,0.0,0.0,21,0.00,,FEW250,0.00,VWS V14.01,2013-01-09 05:58:00,
2013-01-08 22:03:00,48.0,11.0,30.20,WNW,298,3.1,3.1,22,0.00,,CLR,0.00,VWS V14.01,2013-01-09 06:03:00,
2013-01-08 22:08:00,47.5,10.6,30.17,WNW,299,0.0,0.0,22,0.00,,CLR,0.00,VWS V14.01,2013-01-09 06:08:00,
2013-01-08 22:13:00,47.3,10.4,30.17,WNW,295,8.1,8.1,22,0.00,,CLR,0.00,VWS V14.01,2013-01-09 06:13:00,
2013-01-08 22:18:00,47.7,10.7,30.17,NW,305,5.8,5.8,22,0.00,,CLR,0.00,VWS V14.01,2013-01-09 06:18:00,
2013-01-08 22:23:00,48.0,11.0,30.20,NNW,329,3.6,5.4,22,0.00,,CLR,0.00,VWS V14.01,2013-01-09 06:23:00,
2013-01-08 22:28:00,48.4,10.3,30.20,WNW,292,6.3,6.3,21,0.00,,CLR,0.00,VWS V14.01,2013-01-09 06:28:00,
2013-01-08 22:33:00,48.6,10.4,30.20,North,9,3.1,4.0,21,0.00,,CLR,0.00,VWS V14.01,2013-01-09 06:33:00,
2013-01-08 22:38:00,48.2,10.1,30.20,NW,318,3.6,3.6,21,0.00,,CLR,0.00,VWS V14.01,2013-01-09 06:38:00,
2013-01-08 22:43:00,48.6,10.4,30.20,NW,313,8.1,8.1,21,0.00,,CLR,0.00,VWS V14.01,2013-01-09 06:43:00,
2013-01-08 22:48:00,48.9,10.7,30.20,NW,308,5.8,6.3,21,0.00,,CLR,0.00,VWS V14.01,2013-01-09 06:48:00,
2013-01-08 22:53:00,49.1,10.9,30.20,NW,324,8.1,10.5,21,0.00,,CLR,0.00,VWS V14.01,2013-01-09 06:53:00,
2013-01-08 22:58:00,49.1,10.9,30.20,NW,304,7.6,7.6,21,0.00,,CLR,0.00,VWS V14.01,2013-01-09 06:58:00,
2013-01-08 23:03:00,48.7,10.6,30.20,North,353,5.8,5.8,21,0.00,,CLR,0.00,VWS V14.01,2013-01-09 07:03:00,
2013-01-08 23:07:00,48.2,10.1,30.20,NW,313,4.9,6.3,21,0.00,,CLR,0.00,VWS V14.01,2013-01-09 07:07:00,
2013-01-08 23:12:00,47.8,10.9,30.20,NW,324,0.0,0.0,22,0.00,,CLR,0.00,VWS V14.01,2013-01-09 07:12:00,
2013-01-08 23:17:00,48.2,10.1,30.20,NW,325,0.0,0.0,21,0.00,,CLR,0.00,VWS V14.01,2013-01-09 07:17:00,
2013-01-08 23:22:00,48.6,10.4,30.20,West,263,6.7,8.1,21,0.00,,CLR,0.00,VWS V14.01,2013-01-09 07:22:00,
2013-01-08 23:27:00,48.6,10.4,30.20,SW,235,5.4,7.2,21,0.00,,CLR,0.00,VWS V14.01,2013-01-09 07:27:00,
2013-01-08 23:32:00,48.4,10.3,30.20,West,267,5.4,6.3,21,0.00,,CLR,0.00,VWS V14.01,2013-01-09 07:32:00,
2013-01-08 23:37:00,48.2,10.1,30.20,West,268,5.4,5.8,21,0.00,,CLR,0.00,VWS V14.01,2013-01-09 07:37:00,
2013-01-08 23:42:00,48.0,11.0,30.20,NNW,342,5.8,5.8,22,0.00,,CLR,0.00,VWS V14.01,2013-01-09 07:42:00,
2013-01-08 23:47:00,47.5,10.6,30.20,WNW,288,4.9,8.1,22,0.00,,CLR,0.00,VWS V14.01,2013-01-09 07:47:00,
2013-01-08 23:52:00,47.1,10.2,30.20,WNW,290,3.6,5.8,22,0.00,,CLR,0.00,VWS V14.01,2013-01-09 07:52:00,
2013-01-08 23:57:00,47.3,10.4,30.20,WNW,299,5.8,6.3,22,0.00,,CLR,0.00,VWS V14.01,2013-01-09 07:57:00,